sensor_id;sensor_type;location;lat;lon;timestamp;pressure;altitude;pressure_sealevel;temperature;humidity
64343;BME280;50675;53.530;-6.312;2022-08-05T00:01:21;101624.81;;;13.83;51.92
64343;BME280;50675;53.530;-6.312;2022-08-05T00:03:48;101624.16;;;13.76;52.02
64343;BME280;50675;53.530;-6.312;2022-08-05T00:06:14;101620.53;;;13.70;52.10
64343;BME280;50675;53.530;-6.312;2022-08-05T00:08:43;101633.63;;;13.73;52.12
64343;BME280;50675;53.530;-6.312;2022-08-05T00:11:12;101623.16;;;13.65;52.27
64343;BME280;50675;53.530;-6.312;2022-08-05T00:13:40;101633.28;;;13.70;52.03
64343;BME280;50675;53.530;-6.312;2022-08-05T00:16:13;101646.94;;;13.75;52.34
64343;BME280;50675;53.530;-6.312;2022-08-05T00:18:43;101631.72;;;13.57;52.60
64343;BME280;50675;53.530;-6.312;2022-08-05T00:21:13;101636.16;;;13.63;52.53
64343;BME280;50675;53.530;-6.312;2022-08-05T00:23:40;101647.03;;;13.63;52.89
64343;BME280;50675;53.530;-6.312;2022-08-05T00:26:06;101633.34;;;13.58;52.51
64343;BME280;50675;53.530;-6.312;2022-08-05T00:28:32;101630.28;;;13.54;52.71
64343;BME280;50675;53.530;-6.312;2022-08-05T00:30:59;101625.59;;;13.50;52.83
64343;BME280;50675;53.530;-6.312;2022-08-05T00:33:27;101635.16;;;13.52;52.93
64343;BME280;50675;53.530;-6.312;2022-08-05T00:35:55;101638.09;;;13.51;52.99
64343;BME280;50675;53.530;-6.312;2022-08-05T00:38:22;101644.13;;;13.53;53.12
64343;BME280;50675;53.530;-6.312;2022-08-05T00:40:53;101634.72;;;13.44;53.13
64343;BME280;50675;53.530;-6.312;2022-08-05T00:43:22;101625.44;;;13.40;53.05
64343;BME280;50675;53.530;-6.312;2022-08-05T00:45:53;101645.00;;;13.42;53.19
64343;BME280;50675;53.530;-6.312;2022-08-05T00:48:20;101633.47;;;13.35;53.53
64343;BME280;50675;53.530;-6.312;2022-08-05T00:50:49;101636.97;;;13.35;53.60
64343;BME280;50675;53.530;-6.312;2022-08-05T00:53:18;101649.03;;;13.39;53.48
64343;BME280;50675;53.530;-6.312;2022-08-05T00:55:44;101643.97;;;13.31;53.31
64343;BME280;50675;53.530;-6.312;2022-08-05T00:58:12;101646.34;;;13.28;53.69
64343;BME280;50675;53.530;-6.312;2022-08-05T01:00:38;101639.66;;;13.19;53.85
64343;BME280;50675;53.530;-6.312;2022-08-05T01:03:05;101638.50;;;13.14;53.68
64343;BME280;50675;53.530;-6.312;2022-08-05T01:05:35;101646.41;;;13.16;53.88
64343;BME280;50675;53.530;-6.312;2022-08-05T01:08:01;101636.88;;;13.02;53.84
64343;BME280;50675;53.530;-6.312;2022-08-05T01:10:36;101655.00;;;13.13;53.91
64343;BME280;50675;53.530;-6.312;2022-08-05T01:13:09;101660.06;;;13.09;54.00
64343;BME280;50675;53.530;-6.312;2022-08-05T01:15:41;101651.31;;;13.07;53.85
64343;BME280;50675;53.530;-6.312;2022-08-05T01:18:14;101653.69;;;13.04;54.00
64343;BME280;50675;53.530;-6.312;2022-08-05T01:23:48;101655.59;;;13.03;54.31
64343;BME280;50675;53.530;-6.312;2022-08-05T01:29:00;101654.19;;;13.01;54.29
64343;BME280;50675;53.530;-6.312;2022-08-05T01:31:35;101652.19;;;12.96;54.34
64343;BME280;50675;53.530;-6.312;2022-08-05T01:34:08;101651.03;;;12.92;54.56
64343;BME280;50675;53.530;-6.312;2022-08-05T01:36:40;101647.00;;;12.95;54.54
64343;BME280;50675;53.530;-6.312;2022-08-05T01:39:10;101655.97;;;12.95;54.65
64343;BME280;50675;53.530;-6.312;2022-08-05T01:41:36;101642.06;;;12.92;54.88
64343;BME280;50675;53.530;-6.312;2022-08-05T01:44:05;101643.84;;;12.86;54.57
64343;BME280;50675;53.530;-6.312;2022-08-05T01:46:32;101644.41;;;12.88;54.79
64343;BME280;50675;53.530;-6.312;2022-08-05T01:48:59;101641.97;;;12.87;54.89
64343;BME280;50675;53.530;-6.312;2022-08-05T01:51:26;101642.41;;;12.84;55.07
64343;BME280;50675;53.530;-6.312;2022-08-05T01:53:57;101639.16;;;12.70;54.87
64343;BME280;50675;53.530;-6.312;2022-08-05T01:56:27;101648.00;;;12.77;55.08
64343;BME280;50675;53.530;-6.312;2022-08-05T01:58:54;101642.19;;;12.73;55.16
64343;BME280;50675;53.530;-6.312;2022-08-05T02:01:24;101643.13;;;12.79;55.36
64343;BME280;50675;53.530;-6.312;2022-08-05T02:03:52;101639.72;;;12.84;55.32
64343;BME280;50675;53.530;-6.312;2022-08-05T02:06:18;101643.63;;;12.76;55.39
64343;BME280;50675;53.530;-6.312;2022-08-05T02:08:44;101633.72;;;12.70;55.63
64343;BME280;50675;53.530;-6.312;2022-08-05T02:11:12;101649.88;;;12.77;55.62
64343;BME280;50675;53.530;-6.312;2022-08-05T02:13:46;101634.66;;;12.76;55.62
64343;BME280;50675;53.530;-6.312;2022-08-05T02:16:30;101644.78;;;12.80;55.81
64343;BME280;50675;53.530;-6.312;2022-08-05T02:19:16;101647.50;;;12.80;55.90
64343;BME280;50675;53.530;-6.312;2022-08-05T02:21:48;101635.97;;;12.73;55.87
64343;BME280;50675;53.530;-6.312;2022-08-05T02:24:20;101649.72;;;12.83;55.86
64343;BME280;50675;53.530;-6.312;2022-08-05T02:26:55;101647.41;;;12.75;55.98
64343;BME280;50675;53.530;-6.312;2022-08-05T02:29:23;101629.38;;;12.69;56.17
64343;BME280;50675;53.530;-6.312;2022-08-05T02:31:53;101653.41;;;12.77;55.84
64343;BME280;50675;53.530;-6.312;2022-08-05T02:34:22;101649.06;;;12.76;56.13
64343;BME280;50675;53.530;-6.312;2022-08-05T02:36:51;101649.06;;;12.76;56.30
64343;BME280;50675;53.530;-6.312;2022-08-05T02:39:23;101649.88;;;12.77;56.43
64343;BME280;50675;53.530;-6.312;2022-08-05T02:41:52;101647.63;;;12.73;56.39
64343;BME280;50675;53.530;-6.312;2022-08-05T02:44:20;101644.13;;;12.73;56.35
64343;BME280;50675;53.530;-6.312;2022-08-05T02:46:49;101647.28;;;12.70;56.38
64343;BME280;50675;53.530;-6.312;2022-08-05T02:49:17;101644.00;;;12.68;56.63
64343;BME280;50675;53.530;-6.312;2022-08-05T02:51:44;101649.78;;;12.71;56.61
64343;BME280;50675;53.530;-6.312;2022-08-05T02:54:11;101649.44;;;12.68;56.59
64343;BME280;50675;53.530;-6.312;2022-08-05T02:56:40;101645.88;;;12.67;56.67
64343;BME280;50675;53.530;-6.312;2022-08-05T02:59:09;101643.06;;;12.62;56.94
64343;BME280;50675;53.530;-6.312;2022-08-05T03:01:37;101648.94;;;12.59;56.89
64343;BME280;50675;53.530;-6.312;2022-08-05T03:04:12;101642.59;;;12.54;57.00
64343;BME280;50675;53.530;-6.312;2022-08-05T03:06:39;101640.00;;;12.59;57.03
64343;BME280;50675;53.530;-6.312;2022-08-05T03:09:06;101626.34;;;12.54;57.10
64343;BME280;50675;53.530;-6.312;2022-08-05T03:11:32;101641.28;;;12.56;57.09
64343;BME280;50675;53.530;-6.312;2022-08-05T03:13:58;101623.53;;;12.49;57.27
64343;BME280;50675;53.530;-6.312;2022-08-05T03:16:24;101631.06;;;12.47;57.48
64343;BME280;50675;53.530;-6.312;2022-08-05T03:18:50;101616.22;;;12.38;57.46
64343;BME280;50675;53.530;-6.312;2022-08-05T03:21:15;101635.31;;;12.43;57.42
64343;BME280;50675;53.530;-6.312;2022-08-05T03:23:42;101629.41;;;12.46;57.53
64343;BME280;50675;53.530;-6.312;2022-08-05T03:26:09;101637.19;;;12.54;57.52
64343;BME280;50675;53.530;-6.312;2022-08-05T03:28:36;101631.75;;;12.42;57.73
64343;BME280;50675;53.530;-6.312;2022-08-05T03:31:02;101635.97;;;12.50;57.77
64343;BME280;50675;53.530;-6.312;2022-08-05T03:33:29;101639.28;;;12.52;57.74
64343;BME280;50675;53.530;-6.312;2022-08-05T03:35:57;101628.22;;;12.42;57.91
64343;BME280;50675;53.530;-6.312;2022-08-05T03:38:24;101633.53;;;12.48;57.87
64343;BME280;50675;53.530;-6.312;2022-08-05T03:40:50;101629.16;;;12.47;57.72
64343;BME280;50675;53.530;-6.312;2022-08-05T03:43:18;101638.84;;;12.43;58.04
64343;BME280;50675;53.530;-6.312;2022-08-05T03:45:45;101644.97;;;12.39;58.15
64343;BME280;50675;53.530;-6.312;2022-08-05T03:48:11;101639.19;;;12.47;58.47
64343;BME280;50675;53.530;-6.312;2022-08-05T03:50:44;101648.13;;;12.47;58.16
64343;BME280;50675;53.530;-6.312;2022-08-05T03:53:18;101644.47;;;12.42;58.46
64343;BME280;50675;53.530;-6.312;2022-08-05T03:55:52;101637.28;;;12.36;58.24
64343;BME280;50675;53.530;-6.312;2022-08-05T03:58:21;101646.84;;;12.38;58.28
64343;BME280;50675;53.530;-6.312;2022-08-05T04:00:50;101640.25;;;12.34;58.40
64343;BME280;50675;53.530;-6.312;2022-08-05T04:03:17;101638.81;;;12.32;58.34
64343;BME280;50675;53.530;-6.312;2022-08-05T04:05:45;101647.56;;;12.34;58.30
64343;BME280;50675;53.530;-6.312;2022-08-05T04:08:11;101643.91;;;12.28;58.68
64343;BME280;50675;53.530;-6.312;2022-08-05T04:10:38;101637.78;;;12.33;58.48
64343;BME280;50675;53.530;-6.312;2022-08-05T04:13:05;101636.59;;;12.28;58.66
64343;BME280;50675;53.530;-6.312;2022-08-05T04:15:32;101627.75;;;12.21;58.64
64343;BME280;50675;53.530;-6.312;2022-08-05T04:18:01;101636.34;;;12.18;58.72
64343;BME280;50675;53.530;-6.312;2022-08-05T04:20:27;101632.72;;;12.24;58.71
64343;BME280;50675;53.530;-6.312;2022-08-05T04:22:52;101632.09;;;12.22;58.57
64343;BME280;50675;53.530;-6.312;2022-08-05T04:25:18;101624.00;;;12.11;58.89
64343;BME280;50675;53.530;-6.312;2022-08-05T04:27:44;101618.06;;;12.02;59.00
64343;BME280;50675;53.530;-6.312;2022-08-05T04:30:10;101631.28;;;11.99;59.12
64343;BME280;50675;53.530;-6.312;2022-08-05T04:32:35;101625.16;;;12.03;58.79
64343;BME280;50675;53.530;-6.312;2022-08-05T04:35:01;101641.03;;;12.00;58.96
64343;BME280;50675;53.530;-6.312;2022-08-05T04:37:27;101634.09;;;11.92;58.97
64343;BME280;50675;53.530;-6.312;2022-08-05T04:39:53;101643.97;;;11.98;59.13
64343;BME280;50675;53.530;-6.312;2022-08-05T04:42:19;101639.25;;;11.94;59.13
64343;BME280;50675;53.530;-6.312;2022-08-05T04:44:44;101645.63;;;11.99;59.19
64343;BME280;50675;53.530;-6.312;2022-08-05T04:47:10;101642.91;;;11.88;59.42
64343;BME280;50675;53.530;-6.312;2022-08-05T04:49:37;101642.53;;;11.84;59.04
64343;BME280;50675;53.530;-6.312;2022-08-05T04:52:03;101641.84;;;11.89;59.13
64343;BME280;50675;53.530;-6.312;2022-08-05T04:54:29;101644.19;;;11.85;59.17
64343;BME280;50675;53.530;-6.312;2022-08-05T04:56:55;101641.00;;;11.76;59.39
64343;BME280;50675;53.530;-6.312;2022-08-05T04:59:21;101650.44;;;11.86;59.49
64343;BME280;50675;53.530;-6.312;2022-08-05T05:01:53;101659.25;;;11.81;59.52
64343;BME280;50675;53.530;-6.312;2022-08-05T05:04:19;101655.84;;;11.86;59.44
64343;BME280;50675;53.530;-6.312;2022-08-05T05:06:44;101655.50;;;11.82;59.59
64343;BME280;50675;53.530;-6.312;2022-08-05T05:09:13;101660.44;;;11.85;59.64
64343;BME280;50675;53.530;-6.312;2022-08-05T05:11:39;101656.47;;;11.88;59.57
64343;BME280;50675;53.530;-6.312;2022-08-05T05:14:04;101665.72;;;11.80;59.76
64343;BME280;50675;53.530;-6.312;2022-08-05T05:16:31;101660.66;;;11.83;59.68
64343;BME280;50675;53.530;-6.312;2022-08-05T05:18:57;101658.09;;;11.89;59.64
64343;BME280;50675;53.530;-6.312;2022-08-05T05:21:23;101663.28;;;11.90;59.82
64343;BME280;50675;53.530;-6.312;2022-08-05T05:23:48;101666.59;;;11.92;59.88
64343;BME280;50675;53.530;-6.312;2022-08-05T05:26:14;101658.34;;;11.87;59.84
64343;BME280;50675;53.530;-6.312;2022-08-05T05:28:40;101670.00;;;11.88;59.69
64343;BME280;50675;53.530;-6.312;2022-08-05T05:31:06;101671.88;;;11.87;59.85
64343;BME280;50675;53.530;-6.312;2022-08-05T05:33:31;101662.22;;;11.91;60.05
64343;BME280;50675;53.530;-6.312;2022-08-05T05:35:57;101663.38;;;11.83;59.66
64343;BME280;50675;53.530;-6.312;2022-08-05T05:38:22;101659.16;;;11.88;59.97
64343;BME280;50675;53.530;-6.312;2022-08-05T05:40:48;101666.22;;;11.89;59.85
64343;BME280;50675;53.530;-6.312;2022-08-05T05:43:14;101674.03;;;11.97;59.85
64343;BME280;50675;53.530;-6.312;2022-08-05T05:45:40;101672.69;;;11.88;60.05
64343;BME280;50675;53.530;-6.312;2022-08-05T05:48:05;101668.22;;;11.93;60.16
64343;BME280;50675;53.530;-6.312;2022-08-05T05:50:32;101676.94;;;11.95;60.22
64343;BME280;50675;53.530;-6.312;2022-08-05T05:52:58;101671.63;;;11.89;60.09
64343;BME280;50675;53.530;-6.312;2022-08-05T05:55:23;101685.53;;;11.92;60.05
64343;BME280;50675;53.530;-6.312;2022-08-05T05:57:49;101674.31;;;11.89;60.18
64343;BME280;50675;53.530;-6.312;2022-08-05T06:00:16;101698.75;;;12.00;60.13
64343;BME280;50675;53.530;-6.312;2022-08-05T06:02:43;101681.19;;;12.03;60.16
64343;BME280;50675;53.530;-6.312;2022-08-05T06:05:11;101693.09;;;12.13;60.34
64343;BME280;50675;53.530;-6.312;2022-08-05T06:07:38;101696.88;;;12.12;60.36
64343;BME280;50675;53.530;-6.312;2022-08-05T06:10:05;101694.75;;;12.14;60.32
64343;BME280;50675;53.530;-6.312;2022-08-05T06:12:31;101695.97;;;12.30;60.49
64343;BME280;50675;53.530;-6.312;2022-08-05T06:14:59;101704.94;;;12.31;60.48
64343;BME280;50675;53.530;-6.312;2022-08-05T06:17:25;101701.38;;;12.42;60.74
64343;BME280;50675;53.530;-6.312;2022-08-05T06:19:51;101701.28;;;12.48;60.47
64343;BME280;50675;53.530;-6.312;2022-08-05T06:22:25;101707.06;;;12.63;60.70
64343;BME280;50675;53.530;-6.312;2022-08-05T06:24:51;101714.13;;;12.76;60.56
64343;BME280;50675;53.530;-6.312;2022-08-05T06:27:17;101712.31;;;12.93;60.66
64343;BME280;50675;53.530;-6.312;2022-08-05T06:29:43;101716.44;;;13.07;60.82
64343;BME280;50675;53.530;-6.312;2022-08-05T06:32:10;101721.75;;;13.26;60.81
64343;BME280;50675;53.530;-6.312;2022-08-05T06:34:36;101723.13;;;13.40;61.00
64343;BME280;50675;53.530;-6.312;2022-08-05T06:37:02;101729.47;;;13.45;61.01
64343;BME280;50675;53.530;-6.312;2022-08-05T06:39:28;101738.78;;;13.49;60.90
64343;BME280;50675;53.530;-6.312;2022-08-05T06:41:58;101733.91;;;13.63;61.14
64343;BME280;50675;53.530;-6.312;2022-08-05T06:44:28;101727.69;;;13.79;60.94
64343;BME280;50675;53.530;-6.312;2022-08-05T06:46:55;101736.81;;;14.01;61.00
64343;BME280;50675;53.530;-6.312;2022-08-05T06:49:21;101740.56;;;14.00;61.14
64343;BME280;50675;53.530;-6.312;2022-08-05T06:51:47;101752.09;;;14.08;60.99
64343;BME280;50675;53.530;-6.312;2022-08-05T06:54:13;101735.66;;;14.31;61.12
64343;BME280;50675;53.530;-6.312;2022-08-05T06:56:39;101724.63;;;14.54;60.82
64343;BME280;50675;53.530;-6.312;2022-08-05T06:59:06;101740.78;;;14.77;61.11
64343;BME280;50675;53.530;-6.312;2022-08-05T07:01:32;101753.09;;;15.02;61.08
64343;BME280;50675;53.530;-6.312;2022-08-05T07:03:59;101751.78;;;15.04;61.21
64343;BME280;50675;53.530;-6.312;2022-08-05T07:06:25;101741.88;;;15.15;61.16
64343;BME280;50675;53.530;-6.312;2022-08-05T07:08:51;101750.25;;;15.30;61.10
64343;BME280;50675;53.530;-6.312;2022-08-05T07:11:20;101737.75;;;15.34;61.06
64343;BME280;50675;53.530;-6.312;2022-08-05T07:13:46;101744.78;;;15.30;61.13
64343;BME280;50675;53.530;-6.312;2022-08-05T07:16:30;101736.47;;;15.42;61.01
64343;BME280;50675;53.530;-6.312;2022-08-05T07:19:14;101756.00;;;15.55;60.94
64343;BME280;50675;53.530;-6.312;2022-08-05T07:21:39;101750.84;;;15.54;61.10
64343;BME280;50675;53.530;-6.312;2022-08-05T07:24:06;101758.56;;;15.45;61.11
64343;BME280;50675;53.530;-6.312;2022-08-05T07:26:32;101747.97;;;15.44;60.91
64343;BME280;50675;53.530;-6.312;2022-08-05T07:28:58;101757.59;;;15.51;60.77
64343;BME280;50675;53.530;-6.312;2022-08-05T07:31:24;101759.81;;;15.54;60.84
64343;BME280;50675;53.530;-6.312;2022-08-05T07:33:50;101775.25;;;15.70;60.77
64343;BME280;50675;53.530;-6.312;2022-08-05T07:36:16;101757.28;;;15.96;60.82
64343;BME280;50675;53.530;-6.312;2022-08-05T07:38:41;101759.59;;;16.09;60.77
64343;BME280;50675;53.530;-6.312;2022-08-05T07:41:18;101765.19;;;16.25;60.86
64343;BME280;50675;53.530;-6.312;2022-08-05T07:43:45;101775.50;;;16.49;60.68
64343;BME280;50675;53.530;-6.312;2022-08-05T07:46:11;101767.22;;;16.66;60.38
64343;BME280;50675;53.530;-6.312;2022-08-05T07:48:37;101769.66;;;16.63;60.19
64343;BME280;50675;53.530;-6.312;2022-08-05T07:51:03;101776.69;;;16.58;60.28
64343;BME280;50675;53.530;-6.312;2022-08-05T07:53:28;101771.06;;;16.70;60.36
64343;BME280;50675;53.530;-6.312;2022-08-05T07:55:55;101769.19;;;16.76;60.20
64343;BME280;50675;53.530;-6.312;2022-08-05T07:58:20;101781.75;;;16.77;60.02
64343;BME280;50675;53.530;-6.312;2022-08-05T08:00:46;101788.00;;;16.72;59.91
64343;BME280;50675;53.530;-6.312;2022-08-05T08:03:12;101781.09;;;16.65;59.74
64343;BME280;50675;53.530;-6.312;2022-08-05T08:05:39;101785.44;;;16.60;59.98
64343;BME280;50675;53.530;-6.312;2022-08-05T08:08:12;101795.88;;;16.69;60.04
64343;BME280;50675;53.530;-6.312;2022-08-05T08:10:38;101806.34;;;16.82;59.82
64343;BME280;50675;53.530;-6.312;2022-08-05T08:13:05;101807.69;;;16.79;59.59
64343;BME280;50675;53.530;-6.312;2022-08-05T08:15:31;101803.06;;;16.80;59.47
64343;BME280;50675;53.530;-6.312;2022-08-05T08:17:56;101790.78;;;16.77;59.74
64343;BME280;50675;53.530;-6.312;2022-08-05T08:20:24;101804.66;;;16.76;59.64
64343;BME280;50675;53.530;-6.312;2022-08-05T08:22:55;101812.41;;;16.89;59.76
64343;BME280;50675;53.530;-6.312;2022-08-05T08:25:22;101817.31;;;16.92;59.49
64343;BME280;50675;53.530;-6.312;2022-08-05T08:27:47;101823.97;;;17.01;59.47
64343;BME280;50675;53.530;-6.312;2022-08-05T08:30:14;101799.44;;;17.11;59.57
64343;BME280;50675;53.530;-6.312;2022-08-05T08:32:39;101818.69;;;17.36;59.62
64343;BME280;50675;53.530;-6.312;2022-08-05T08:35:08;101823.63;;;17.39;59.22
64343;BME280;50675;53.530;-6.312;2022-08-05T08:37:34;101824.00;;;17.53;59.48
64343;BME280;50675;53.530;-6.312;2022-08-05T08:40:04;101829.00;;;17.66;59.42
64343;BME280;50675;53.530;-6.312;2022-08-05T08:42:30;101801.81;;;17.49;59.27
64343;BME280;50675;53.530;-6.312;2022-08-05T08:44:57;101825.97;;;17.68;59.25
64343;BME280;50675;53.530;-6.312;2022-08-05T08:48:12;101844.34;;;17.82;59.08
64343;BME280;50675;53.530;-6.312;2022-08-05T08:50:46;101838.16;;;18.12;58.96
64343;BME280;50675;53.530;-6.312;2022-08-05T08:53:14;101825.59;;;18.16;58.81
64343;BME280;50675;53.530;-6.312;2022-08-05T08:55:44;101828.94;;;18.39;58.57
64343;BME280;50675;53.530;-6.312;2022-08-05T08:58:14;101838.25;;;18.43;58.50
64343;BME280;50675;53.530;-6.312;2022-08-05T09:00:41;101835.00;;;18.56;58.46
64343;BME280;50675;53.530;-6.312;2022-08-05T09:03:09;101841.81;;;18.48;58.09
64343;BME280;50675;53.530;-6.312;2022-08-05T09:05:36;101846.44;;;18.43;57.80
64343;BME280;50675;53.530;-6.312;2022-08-05T09:08:04;101844.25;;;18.45;57.83
64343;BME280;50675;53.530;-6.312;2022-08-05T09:10:38;101837.66;;;18.35;57.82
64343;BME280;50675;53.530;-6.312;2022-08-05T09:13:05;101837.13;;;18.28;57.30
64343;BME280;50675;53.530;-6.312;2022-08-05T09:15:31;101832.50;;;18.34;57.47
64343;BME280;50675;53.530;-6.312;2022-08-05T09:17:57;101844.25;;;18.45;57.12
64343;BME280;50675;53.530;-6.312;2022-08-05T09:20:23;101853.88;;;18.57;57.18
64343;BME280;50675;53.530;-6.312;2022-08-05T09:25:26;101851.41;;;18.56;56.40
64343;BME280;50675;53.530;-6.312;2022-08-05T09:27:52;101851.97;;;18.58;56.29
64343;BME280;50675;53.530;-6.312;2022-08-05T09:30:18;101850.59;;;18.55;56.08
64343;BME280;50675;53.530;-6.312;2022-08-05T09:32:44;101860.72;;;18.65;56.27
64343;BME280;50675;53.530;-6.312;2022-08-05T09:35:15;101857.44;;;18.88;56.10
64343;BME280;50675;53.530;-6.312;2022-08-05T09:37:49;101849.22;;;18.98;55.60
64343;BME280;50675;53.530;-6.312;2022-08-05T09:40:36;101860.16;;;19.13;55.69
64343;BME280;50675;53.530;-6.312;2022-08-05T09:43:06;101864.25;;;19.26;55.68
64343;BME280;50675;53.530;-6.312;2022-08-05T09:45:41;101863.72;;;19.29;55.04
64343;BME280;50675;53.530;-6.312;2022-08-05T09:51:03;101867.25;;;19.35;54.84
64343;BME280;50675;53.530;-6.312;2022-08-05T09:53:50;101877.69;;;19.28;54.79
64343;BME280;50675;53.530;-6.312;2022-08-05T09:56:28;101867.56;;;19.23;54.10
64343;BME280;50675;53.530;-6.312;2022-08-05T09:59:12;101863.44;;;19.26;53.86
64343;BME280;50675;53.530;-6.312;2022-08-05T10:01:42;101885.06;;;19.32;54.17
64343;BME280;50675;53.530;-6.312;2022-08-05T10:04:14;101870.28;;;19.28;53.58
64343;BME280;50675;53.530;-6.312;2022-08-05T10:06:53;101881.50;;;19.32;53.54
64343;BME280;50675;53.530;-6.312;2022-08-05T10:09:27;101879.59;;;19.37;53.44
64343;BME280;50675;53.530;-6.312;2022-08-05T10:11:54;101889.16;;;19.35;53.45
64343;BME280;50675;53.530;-6.312;2022-08-05T10:14:35;101890.00;;;19.25;53.22
64343;BME280;50675;53.530;-6.312;2022-08-05T10:17:14;101899.88;;;19.21;53.44
64343;BME280;50675;53.530;-6.312;2022-08-05T10:19:46;101892.47;;;18.96;53.03
64343;BME280;50675;53.530;-6.312;2022-08-05T10:22:17;101892.22;;;18.93;53.29
64343;BME280;50675;53.530;-6.312;2022-08-05T10:24:49;101886.72;;;18.72;53.11
64343;BME280;50675;53.530;-6.312;2022-08-05T10:27:17;101899.03;;;18.70;52.99
64343;BME280;50675;53.530;-6.312;2022-08-05T10:29:52;101896.88;;;18.67;53.11
64343;BME280;50675;53.530;-6.312;2022-08-05T10:32:25;101920.97;;;18.80;52.92
64343;BME280;50675;53.530;-6.312;2022-08-05T10:34:53;101924.81;;;18.89;52.55
64343;BME280;50675;53.530;-6.312;2022-08-05T10:37:25;101916.56;;;18.79;52.27
64343;BME280;50675;53.530;-6.312;2022-08-05T10:40:35;101912.19;;;18.83;52.14
64343;BME280;50675;53.530;-6.312;2022-08-05T10:43:46;101926.47;;;19.00;52.00
64343;BME280;50675;53.530;-6.312;2022-08-05T10:46:19;101909.72;;;19.02;52.14
64343;BME280;50675;53.530;-6.312;2022-08-05T10:49:20;101914.38;;;19.11;52.01
64343;BME280;50675;53.530;-6.312;2022-08-05T10:52:03;101906.47;;;19.05;51.81
64343;BME280;50675;53.530;-6.312;2022-08-05T10:55:03;101904.00;;;19.13;52.25
64343;BME280;50675;53.530;-6.312;2022-08-05T10:57:42;101922.59;;;19.11;51.77
64343;BME280;50675;53.530;-6.312;2022-08-05T11:03:11;101906.16;;;19.06;51.65
64343;BME280;50675;53.530;-6.312;2022-08-05T11:05:40;101912.75;;;19.15;51.95
64343;BME280;50675;53.530;-6.312;2022-08-05T11:08:11;101925.91;;;19.23;51.73
64343;BME280;50675;53.530;-6.312;2022-08-05T11:10:43;101924.00;;;19.14;51.56
64343;BME280;50675;53.530;-6.312;2022-08-05T11:13:42;101925.06;;;18.98;51.44
64343;BME280;50675;53.530;-6.312;2022-08-05T11:16:30;101932.22;;;19.09;51.45
64343;BME280;50675;53.530;-6.312;2022-08-05T11:19:28;101925.34;;;19.32;51.31
64343;BME280;50675;53.530;-6.312;2022-08-05T11:25:42;101916.56;;;19.30;51.37
64343;BME280;50675;53.530;-6.312;2022-08-05T11:36:11;101931.91;;;19.66;50.71
64343;BME280;50675;53.530;-6.312;2022-08-05T11:43:33;101932.94;;;19.85;50.22
64343;BME280;50675;53.530;-6.312;2022-08-05T11:46:00;101929.34;;;20.00;49.75
64343;BME280;50675;53.530;-6.312;2022-08-05T11:48:26;101932.91;;;20.00;49.72
64343;BME280;50675;53.530;-6.312;2022-08-05T11:50:53;101940.31;;;20.00;49.80
64343;BME280;50675;53.530;-6.312;2022-08-05T11:53:19;101937.53;;;20.05;49.82
64343;BME280;50675;53.530;-6.312;2022-08-05T11:55:54;101942.47;;;20.08;49.66
64343;BME280;50675;53.530;-6.312;2022-08-05T11:58:29;101941.56;;;20.23;49.05
64343;BME280;50675;53.530;-6.312;2022-08-05T12:03:49;101939.25;;;20.50;49.03
64343;BME280;50675;53.530;-6.312;2022-08-05T12:06:25;101931.00;;;20.55;48.58
64343;BME280;50675;53.530;-6.312;2022-08-05T12:08:55;101940.50;;;20.73;48.90
64343;BME280;50675;53.530;-6.312;2022-08-05T12:11:29;101930.56;;;20.77;48.76
64343;BME280;50675;53.530;-6.312;2022-08-05T12:13:58;101935.69;;;20.93;48.66
64343;BME280;50675;53.530;-6.312;2022-08-05T12:16:27;101943.09;;;20.93;48.31
64343;BME280;50675;53.530;-6.312;2022-08-05T12:18:53;101943.22;;;21.12;48.31
64343;BME280;50675;53.530;-6.312;2022-08-05T12:21:33;101959.16;;;21.15;48.12
64343;BME280;50675;53.530;-6.312;2022-08-05T12:24:10;101950.59;;;21.21;47.78
64343;BME280;50675;53.530;-6.312;2022-08-05T12:26:52;101932.06;;;20.98;47.95
64343;BME280;50675;53.530;-6.312;2022-08-05T12:29:22;101963.78;;;21.19;47.23
64343;BME280;50675;53.530;-6.312;2022-08-05T12:32:00;101951.22;;;21.08;47.17
64343;BME280;50675;53.530;-6.312;2022-08-05T12:34:33;101954.78;;;21.14;47.03
64343;BME280;50675;53.530;-6.312;2022-08-05T12:37:08;101950.59;;;21.21;46.68
64343;BME280;50675;53.530;-6.312;2022-08-05T12:39:44;101957.94;;;21.31;46.85
64343;BME280;50675;53.530;-6.312;2022-08-05T12:42:22;101957.38;;;21.29;46.25
64343;BME280;50675;53.530;-6.312;2022-08-05T12:45:09;101960.09;;;21.34;46.28
64343;BME280;50675;53.530;-6.312;2022-08-05T12:47:36;101950.59;;;21.21;46.06
64343;BME280;50675;53.530;-6.312;2022-08-05T12:50:20;101962.03;;;21.33;45.96
64343;BME280;50675;53.530;-6.312;2022-08-05T12:53:04;101966.31;;;21.45;45.91
64343;BME280;50675;53.530;-6.312;2022-08-05T12:55:30;101956.63;;;21.23;45.94
64343;BME280;50675;53.530;-6.312;2022-08-05T12:57:59;101965.44;;;21.20;45.67
64343;BME280;50675;53.530;-6.312;2022-08-05T13:00:34;101957.56;;;21.09;45.45
64343;BME280;50675;53.530;-6.312;2022-08-05T13:03:17;101968.53;;;21.09;45.15
64343;BME280;50675;53.530;-6.312;2022-08-05T13:05:57;101963.94;;;20.99;45.24
64343;BME280;50675;53.530;-6.312;2022-08-05T13:08:28;101978.19;;;21.01;44.82
64343;BME280;50675;53.530;-6.312;2022-08-05T14:23:07;102002.06;;;21.73;42.58
64343;BME280;50675;53.530;-6.312;2022-08-05T14:25:33;102003.38;;;21.81;42.54
64343;BME280;50675;53.530;-6.312;2022-08-05T14:27:59;102000.31;;;21.82;42.77
64343;BME280;50675;53.530;-6.312;2022-08-05T14:30:28;102005.72;;;21.93;42.62
64343;BME280;50675;53.530;-6.312;2022-08-05T14:32:53;102006.84;;;21.92;42.74
64343;BME280;50675;53.530;-6.312;2022-08-05T14:35:19;102015.72;;;21.83;42.36
64343;BME280;50675;53.530;-6.312;2022-08-05T14:37:45;102009.13;;;21.85;42.38
64343;BME280;50675;53.530;-6.312;2022-08-05T14:40:11;102001.06;;;21.64;42.12